createdAt,value
2019-05-15T00:02:12.189Z,98933.03
2019-05-15T00:04:42.794Z,98931.16
2019-05-15T00:37:53.074Z,98909.05
2019-05-15T00:41:01.647Z,98900.61
2019-05-15T00:43:52.033Z,98898.45
2019-05-15T00:46:41.294Z,98891.70
2019-05-15T00:49:11.588Z,98884.90
2019-05-15T00:52:01.134Z,98885.16
2019-05-15T00:54:50.526Z,98884.38
2019-05-15T00:57:40.393Z,98875.52
2019-05-15T01:00:59.031Z,98883.06
2019-05-15T01:03:28.557Z,98872.61
2019-05-15T01:05:59.172Z,98870.49
2019-05-15T01:08:29.439Z,98872.39
2019-05-15T01:11:19.293Z,98868.67
2019-05-15T01:13:49.567Z,98862.27
2019-05-15T01:16:39.395Z,98859.76
2019-05-15T01:19:30.708Z,98856.02
2019-05-15T01:22:20.263Z,98852.48
2019-05-15T01:25:29.795Z,98848.58
2019-05-15T01:28:19.421Z,98845.22
2019-05-15T01:31:08.844Z,98843.56
2019-05-15T01:37:08.758Z,98847.61
2019-05-15T01:39:58.267Z,98850.48
2019-05-15T01:42:49.869Z,98838.05
2019-05-15T01:45:19.640Z,98778.97
2019-05-15T01:47:50.190Z,98832.22
2019-05-15T01:50:39.508Z,98826.78
2019-05-15T01:53:31.407Z,98827.27
2019-05-15T01:56:20.723Z,98829.52
2019-05-15T01:59:10.223Z,98821.75
2019-05-15T02:01:59.509Z,98815.92
2019-05-15T02:04:48.870Z,98818.14
2019-05-15T02:07:38.989Z,98816.48
2019-05-15T02:10:29.436Z,98822.77
2019-05-15T02:13:19.111Z,98817.73
2019-05-15T02:15:49.362Z,98813.63
2019-05-15T02:18:39.369Z,98819.34
2019-05-15T02:21:29.933Z,98815.32
2019-05-15T02:24:19.497Z,98807.72
2019-05-15T02:27:09.113Z,98806.55
2019-05-15T02:29:40.779Z,98807.70
2019-05-15T02:32:30.401Z,98802.13
2019-05-15T02:35:19.767Z,98800.15
2019-05-15T02:37:50.104Z,98801.73
2019-05-15T02:40:40.439Z,98800.15
2019-05-15T02:43:11.362Z,98796.84
2019-05-15T02:49:12.148Z,98804.80
2019-05-15T02:51:42.402Z,98797.31
2019-05-15T02:54:31.739Z,98798.67
2019-05-15T02:57:21.043Z,98798.62
2019-05-15T02:59:51.318Z,98794.72
2019-05-15T03:02:41.591Z,98799.34
2019-05-15T03:05:12.604Z,98793.81
2019-05-15T03:08:02.173Z,98789.55
2019-05-15T03:10:51.486Z,98789.41
2019-05-15T03:13:22.067Z,98787.53
2019-05-15T03:16:11.371Z,98786.01
2019-05-15T03:19:00.806Z,98788.45
2019-05-15T03:21:31.106Z,98788.41
2019-05-15T03:24:01.680Z,98787.73
2019-05-15T03:26:32.063Z,98784.16
2019-05-15T03:29:02.327Z,98777.83
2019-05-15T03:32:07.340Z,98781.77
2019-05-15T03:34:47.154Z,98782.98
2019-05-15T03:37:15.053Z,98780.16
2019-05-15T03:39:48.486Z,98781.53
2019-05-15T03:42:39.425Z,98773.34
2019-05-15T03:45:49.375Z,98779.25
2019-05-15T03:48:30.952Z,98781.97
2019-05-15T03:51:01.247Z,98777.84
2019-05-15T03:53:50.592Z,98781.33
2019-05-15T03:56:39.841Z,98780.75
2019-05-15T03:59:10.149Z,98782.50
2019-05-15T04:01:43.733Z,98782.95
2019-05-15T04:04:12.709Z,98781.05
2019-05-15T04:07:01.815Z,98778.84
2019-05-15T04:09:32.097Z,98777.84
2019-05-15T04:12:21.414Z,98791.27
2019-05-15T04:15:10.933Z,98788.19
2019-05-15T04:18:00.690Z,98785.59
2019-05-15T04:20:50.163Z,98790.06
2019-05-15T04:23:39.856Z,98785.53
2019-05-15T04:26:49.386Z,98787.56
2019-05-15T04:29:43.066Z,98784.48
2019-05-15T04:32:32.342Z,98782.62
2019-05-15T04:35:21.929Z,98786.02
2019-05-15T04:38:11.262Z,98786.86
2019-05-15T04:40:41.485Z,98784.47
2019-05-15T04:43:12.271Z,98781.37
2019-05-15T04:45:59.128Z,98779.88
2019-05-15T04:48:19.741Z,98779.37
2019-05-15T04:54:02.130Z,98778.84
2019-05-15T04:56:51.411Z,98779.19
2019-05-15T04:59:40.956Z,98782.50
2019-05-15T05:02:16.870Z,98785.80
2019-05-15T05:05:02.522Z,98789.02
2019-05-15T05:07:51.832Z,98796.05
2019-05-15T05:10:24.825Z,98790.94
2019-05-15T05:12:59.006Z,98789.05
2019-05-15T05:15:49.973Z,98788.92
2019-05-15T05:18:41.842Z,98788.40
2019-05-15T05:21:32.821Z,98787.01
2019-05-15T05:24:22.225Z,98779.50
2019-05-15T05:26:52.651Z,98780.16
2019-05-15T05:29:22.996Z,98784.73
2019-05-15T05:31:54.511Z,98785.12
2019-05-15T05:34:31.229Z,98782.93
2019-05-15T05:37:02.987Z,98790.33
2019-05-15T05:39:35.150Z,98787.20
2019-05-15T05:42:08.723Z,98798.19
2019-05-15T05:45:02.136Z,98788.63
2019-05-15T05:47:43.491Z,98786.69
2019-05-15T05:50:25.023Z,98794.09
2019-05-15T05:52:57.941Z,98786.14
2019-05-15T05:55:53.180Z,98789.30
2019-05-15T05:58:24.239Z,98789.39
2019-05-15T06:01:13.813Z,98787.41
2019-05-15T06:03:44.113Z,98791.09
2019-05-15T06:06:34.692Z,98784.89
2019-05-15T06:09:28.844Z,98787.58
2019-05-15T06:11:59.120Z,98795.94
2019-05-15T06:14:49.067Z,98789.95
2019-05-15T06:17:39.474Z,98793.05
2019-05-15T06:20:31.141Z,98793.58
2019-05-15T06:23:03.044Z,98792.56
2019-05-15T06:25:34.404Z,98794.34
2019-05-15T06:28:05.183Z,98791.60
2019-05-15T06:30:33.157Z,98785.73
2019-05-15T06:36:17.872Z,98793.05
2019-05-15T06:38:48.457Z,98784.17
2019-05-15T06:41:43.061Z,98782.92
2019-05-15T06:44:48.360Z,98778.88
2019-05-15T06:47:31.808Z,98775.77
2019-05-15T06:50:17.930Z,98770.00
2019-05-15T06:53:00.041Z,98775.58
2019-05-15T06:55:38.806Z,98772.60
2019-05-15T06:58:09.463Z,98775.42
2019-05-15T07:00:48.436Z,98768.32
2019-05-15T07:03:21.481Z,98781.06
2019-05-15T07:05:45.917Z,98769.69
2019-05-15T07:08:35.245Z,98776.93
2019-05-15T07:11:05.684Z,98771.50
2019-05-15T07:13:39.295Z,98772.67
2019-05-15T07:16:29.256Z,98780.22
2019-05-15T07:19:10.652Z,98777.97
2019-05-15T07:21:45.268Z,98775.45
2019-05-15T07:24:15.505Z,98776.92
2019-05-15T07:26:48.351Z,98778.83
2019-05-15T07:31:58.621Z,98782.13
2019-05-15T07:34:49.891Z,98772.84
2019-05-15T07:37:22.717Z,98775.66
2019-05-15T07:39:53.060Z,98775.61
2019-05-15T07:42:25.652Z,98775.25
2019-05-15T07:44:58.634Z,98776.94
2019-05-15T07:47:40.863Z,98786.34
2019-05-15T07:50:22.154Z,98665.47
2019-05-15T07:53:08.804Z,98768.52
2019-05-15T07:55:39.561Z,98769.06
2019-05-15T07:58:31.840Z,98775.84
2019-05-15T08:01:23.152Z,98767.70
2019-05-15T08:04:01.658Z,98767.80
2019-05-15T08:06:29.895Z,98757.48
2019-05-15T08:09:00.119Z,98761.94
2019-05-15T08:11:53.754Z,98758.87
2019-05-15T08:17:22.326Z,98759.91
2019-05-15T08:20:12.355Z,98766.95
2019-05-15T08:23:03.971Z,98757.13
2019-05-15T08:28:28.745Z,98757.30
2019-05-15T08:31:12.544Z,98752.14
2019-05-15T08:34:21.092Z,98755.87
2019-05-15T08:36:51.933Z,98746.25
2019-05-15T08:39:22.221Z,98746.89
2019-05-15T08:41:58.485Z,98748.27
2019-05-15T08:44:48.968Z,98735.43
2019-05-15T08:47:23.481Z,98739.99
2019-05-15T08:50:09.010Z,98744.06
2019-05-15T08:52:58.781Z,98748.88
2019-05-15T08:55:49.953Z,98740.67
2019-05-15T08:58:20.856Z,98754.63
2019-05-15T09:03:44.134Z,98749.44
2019-05-15T09:06:41.004Z,98743.97
2019-05-15T09:12:08.105Z,98734.05
2019-05-15T09:17:18.168Z,98730.19
2019-05-15T09:19:49.145Z,98737.23
2019-05-15T09:22:38.503Z,98725.25
2019-05-15T09:25:28.799Z,98723.31
2019-05-15T09:28:19.158Z,98725.46
2019-05-15T09:30:51.514Z,98719.97
2019-05-15T09:33:28.624Z,98707.50
2019-05-15T09:35:59.012Z,98709.94
2019-05-15T09:38:49.740Z,98705.43
2019-05-15T09:41:38.898Z,98704.02
2019-05-15T09:44:28.499Z,98705.77
2019-05-15T09:46:58.975Z,98613.84
2019-05-15T09:49:44.227Z,98705.19
2019-05-15T09:55:10.710Z,98708.86
2019-05-15T09:57:55.309Z,98715.09
2019-05-15T10:00:35.589Z,98706.03
2019-05-15T10:09:38.917Z,98692.55
2019-05-15T10:12:59.468Z,98689.48
2019-05-15T10:15:51.908Z,98694.46
2019-05-15T10:19:18.696Z,98687.30
2019-05-15T10:22:09.691Z,98608.91
2019-05-15T10:24:59.161Z,98681.77
2019-05-15T10:27:31.160Z,98613.66
2019-05-15T10:30:04.659Z,98674.52
2019-05-15T10:32:53.964Z,98674.10
2019-05-15T10:35:31.820Z,98663.95
2019-05-15T10:44:20.241Z,98645.69
2019-05-15T10:46:52.717Z,98656.52
2019-05-15T10:49:33.938Z,98646.45
2019-05-15T10:52:29.104Z,98646.58
2019-05-15T10:55:01.717Z,98641.84
2019-05-15T10:58:16.719Z,98628.03
2019-05-15T11:03:00.091Z,98629.59
2019-05-15T11:05:51.235Z,98634.39
2019-05-15T11:08:21.698Z,98623.06
2019-05-15T11:11:11.315Z,98628.43
2019-05-15T11:13:41.605Z,98620.60
2019-05-15T11:19:15.929Z,98615.43
2019-05-15T11:22:05.213Z,98605.34
2019-05-15T11:25:09.938Z,98615.91
2019-05-15T11:28:08.359Z,98613.50
2019-05-15T11:31:00.700Z,98602.94
2019-05-15T11:37:01.841Z,98597.84
2019-05-15T11:40:13.445Z,98597.30
2019-05-15T11:43:23.157Z,98596.22
2019-05-15T11:45:59.610Z,98589.48
2019-05-15T11:51:34.106Z,98584.56
2019-05-15T11:54:15.948Z,98599.69
2019-05-15T11:56:55.709Z,98593.70
2019-05-15T11:59:54.853Z,98589.26
2019-05-15T12:02:20.576Z,98587.83
2019-05-15T12:05:01.622Z,98584.11
2019-05-15T12:07:34.844Z,98580.12
2019-05-15T12:10:05.243Z,98574.45
2019-05-15T12:15:44.928Z,98583.10
2019-05-15T12:18:34.247Z,98574.83
2019-05-15T12:21:19.724Z,98543.23
2019-05-15T12:23:38.758Z,98576.37
2019-05-15T12:26:29.162Z,98563.20
2019-05-15T12:32:35.549Z,98557.68
2019-05-15T12:35:20.469Z,98447.47
2019-05-15T12:37:51.009Z,98559.55
2019-05-15T13:01:25.968Z,98555.81
2019-05-15T13:04:20.243Z,98549.83
2019-05-15T13:07:16.389Z,98563.60
2019-05-15T13:10:03.025Z,98564.77
2019-05-15T13:16:31.288Z,98549.17
2019-05-15T13:18:54.443Z,98546.79
2019-05-15T13:21:50.889Z,98544.45
2019-05-15T13:24:19.295Z,98560.09
2019-05-15T13:27:09.495Z,98556.34
2019-05-15T13:29:40.058Z,98557.08
2019-05-15T13:32:31.974Z,98545.14
2019-05-15T13:35:23.113Z,98550.48
2019-05-15T13:38:18.024Z,98552.32
2019-05-15T13:41:11.654Z,98547.63
2019-05-15T13:44:03.769Z,98554.45
2019-05-15T13:46:52.993Z,98542.59
2019-05-15T13:49:35.178Z,98540.77
2019-05-15T13:52:08.344Z,98535.11
2019-05-15T13:54:59.785Z,98533.05
2019-05-15T13:57:50.482Z,98543.47
2019-05-15T14:07:02.925Z,98528.41
2019-05-15T14:09:54.564Z,98521.21
2019-05-15T14:12:25.107Z,98522.45
2019-05-15T14:15:17.805Z,98525.90
2019-05-15T14:18:08.714Z,98516.02
2019-05-15T14:20:41.963Z,98415.41
2019-05-15T14:26:29.933Z,98519.55
2019-05-15T14:29:00.242Z,98513.00
2019-05-15T14:32:08.453Z,98509.16
2019-05-15T14:34:38.849Z,98501.06
2019-05-15T14:37:30.791Z,98514.89
2019-05-15T14:40:20.213Z,98510.39
2019-05-15T14:43:09.536Z,98501.95
2019-05-15T14:45:59.109Z,98509.63
2019-05-15T14:48:49.102Z,98507.28
2019-05-15T14:51:40.783Z,98509.28
2019-05-15T14:57:23.911Z,98519.44
2019-05-15T15:00:44.506Z,98521.39
2019-05-15T15:03:02.350Z,98511.53
2019-05-15T15:08:29.206Z,98506.02
2019-05-15T15:11:17.892Z,98500.70
2019-05-15T15:13:57.894Z,98513.94
2019-05-15T15:16:29.281Z,98502.32
2019-05-15T15:19:00.954Z,98501.88
2019-05-15T15:21:50.528Z,98508.66
2019-05-15T15:24:23.941Z,98497.83
2019-05-15T15:27:08.293Z,98494.74
2019-05-15T15:29:40.753Z,98498.30
2019-05-15T15:32:31.275Z,98495.04
2019-05-15T15:35:04.031Z,98489.33
2019-05-15T15:37:53.613Z,98490.02
2019-05-15T15:40:28.295Z,98375.80
2019-05-15T15:42:59.216Z,98489.16
2019-05-15T15:45:29.649Z,98492.29
2019-05-15T15:48:19.827Z,98487.34
2019-05-15T15:51:02.205Z,98491.76
2019-05-15T15:53:32.944Z,98487.95
2019-05-15T15:56:23.921Z,98492.70
2019-05-15T15:58:59.705Z,98491.45
2019-05-15T16:01:31.617Z,98488.91
2019-05-15T16:04:21.259Z,98485.06
2019-05-15T16:07:38.035Z,98484.69
2019-05-15T16:09:48.352Z,98484.61
2019-05-15T16:12:58.324Z,98489.31
2019-05-15T16:15:52.065Z,98493.19
2019-05-15T16:18:24.430Z,98346.92
2019-05-15T16:21:14.146Z,98498.09
2019-05-15T16:23:45.474Z,98376.13
2019-05-15T16:26:22.475Z,98492.53
2019-05-15T16:29:13.104Z,98494.22
2019-05-15T16:32:02.729Z,98488.83
2019-05-15T16:35:10.912Z,98468.15
2019-05-15T16:37:41.285Z,98480.78
2019-05-15T16:40:31.511Z,98485.83
2019-05-15T16:43:20.909Z,98485.00
2019-05-15T16:45:52.202Z,98486.31
2019-05-15T16:48:23.142Z,98481.65
2019-05-15T16:51:04.491Z,98480.47
2019-05-15T16:53:35.191Z,98478.95
2019-05-15T16:56:05.813Z,98484.34
2019-05-15T16:58:55.169Z,98488.39
2019-05-15T17:01:25.453Z,98483.69
2019-05-15T17:03:55.897Z,98481.23
2019-05-15T17:06:30.464Z,98477.88
2019-05-15T17:09:28.731Z,98481.88
2019-05-15T17:12:33.088Z,98480.98
2019-05-15T17:15:03.820Z,98486.33
2019-05-15T17:18:29.626Z,98473.22
2019-05-15T17:20:48.473Z,98479.20
2019-05-15T17:23:19.099Z,98482.52
2019-05-15T17:25:49.696Z,98485.25
2019-05-15T17:31:32.481Z,98481.99
2019-05-15T17:34:06.108Z,98477.08
2019-05-15T17:36:50.728Z,98476.83
2019-05-15T17:39:34.635Z,98467.13
2019-05-15T17:42:38.929Z,98469.34
2019-05-15T17:45:48.117Z,98470.95
2019-05-15T17:48:33.426Z,98472.08
2019-05-15T17:51:14.631Z,98469.52
2019-05-15T17:54:03.916Z,98471.42
2019-05-15T17:56:39.231Z,98472.59
2019-05-15T17:59:32.693Z,98469.45
2019-05-15T18:06:14.528Z,98472.22
2019-05-15T18:09:04.825Z,98470.36
2019-05-15T18:11:54.417Z,98478.77
2019-05-15T18:14:48.348Z,98450.95
2019-05-15T18:17:45.151Z,98480.55
2019-05-15T18:20:38.434Z,98477.66
2019-05-15T18:23:27.475Z,98480.55
2019-05-15T18:26:18.678Z,98486.52
2019-05-15T18:28:50.867Z,98485.23
2019-05-15T18:31:21.860Z,98485.59
2019-05-15T18:33:59.204Z,98490.09
2019-05-15T18:37:14.527Z,98485.03
2019-05-15T18:40:06.175Z,98491.78
2019-05-15T18:42:38.902Z,98489.34
2019-05-15T18:45:13.833Z,98495.27
2019-05-15T18:48:04.354Z,98491.97
2019-05-15T18:50:44.290Z,98494.11
2019-05-15T18:53:18.065Z,98501.89
2019-05-15T18:56:08.950Z,98492.31
2019-05-15T19:01:50.425Z,98495.72
2019-05-15T19:04:23.084Z,98501.31
2019-05-15T19:07:18.123Z,98503.83
2019-05-15T19:09:48.242Z,98499.86
2019-05-15T19:12:38.849Z,98506.22
2019-05-15T19:15:29.617Z,98506.92
2019-05-15T19:18:01.054Z,98502.60
2019-05-15T19:20:34.103Z,98500.55
2019-05-15T19:23:23.856Z,98501.75
2019-05-15T19:26:18.003Z,98479.34
2019-05-15T19:29:08.311Z,98506.17
2019-05-15T19:31:59.880Z,98504.55
2019-05-15T19:34:33.432Z,98511.46
2019-05-15T19:37:23.596Z,98516.94
2019-05-15T19:43:23.643Z,98505.77
2019-05-15T19:46:13.024Z,98506.53
2019-05-15T19:49:02.731Z,98505.27
2019-05-15T19:51:38.127Z,98507.95
2019-05-15T19:54:09.665Z,98509.99
2019-05-15T19:59:34.212Z,98496.05
2019-05-15T20:02:31.215Z,98501.89
2019-05-15T20:08:38.514Z,98511.34
2019-05-15T20:11:18.387Z,98512.65
2019-05-15T20:14:05.881Z,98511.38
2019-05-15T20:19:48.707Z,98505.27
2019-05-15T20:22:41.012Z,98508.24
2019-05-15T20:25:31.423Z,98506.19
2019-05-15T20:28:04.079Z,98501.84
2019-05-15T20:31:18.957Z,98502.82
2019-05-15T20:34:29.183Z,98495.27
2019-05-15T20:36:59.652Z,98491.41
2019-05-15T20:39:30.423Z,98492.59
2019-05-15T20:45:12.439Z,98488.41
2019-05-15T20:47:42.449Z,98486.58
2019-05-15T20:53:57.997Z,98480.59
2019-05-15T20:56:48.999Z,98483.28
2019-05-15T20:59:20.977Z,98360.30
2019-05-15T21:02:38.027Z,98490.92
2019-05-15T21:05:29.870Z,98399.25
2019-05-15T21:08:00.421Z,98489.93
2019-05-15T21:10:49.846Z,98491.92
2019-05-15T21:13:20.351Z,98486.92
2019-05-15T21:16:10.390Z,98480.95
2019-05-15T21:18:54.302Z,98489.04
2019-05-15T21:25:19.129Z,98482.52
2019-05-15T21:28:10.593Z,98481.71
2019-05-15T21:31:02.731Z,98471.25
2019-05-15T21:33:33.125Z,98475.16
2019-05-15T21:36:04.012Z,98476.63
2019-05-15T21:38:53.303Z,98475.33
2019-05-15T21:41:25.308Z,98473.11
2019-05-15T21:44:14.880Z,98480.09
2019-05-15T21:47:04.484Z,98472.42
2019-05-15T21:49:35.073Z,98472.02
2019-05-15T21:52:18.490Z,98467.74
2019-05-15T21:55:03.171Z,98470.31
2019-05-15T21:57:44.829Z,98464.91
2019-05-15T22:00:38.402Z,98450.66
2019-05-15T22:03:28.801Z,98460.38
2019-05-15T22:06:39.790Z,98454.99
2019-05-15T22:09:29.247Z,98446.61
2019-05-15T22:12:01.166Z,98445.28
2019-05-15T22:14:54.132Z,98436.21
2019-05-15T22:17:49.036Z,98441.51
2019-05-15T22:20:38.958Z,98437.55
2019-05-15T22:23:30.508Z,98425.58
2019-05-15T22:26:00.858Z,98428.08
2019-05-15T22:28:32.512Z,98433.02
2019-05-15T22:31:39.685Z,98438.88
2019-05-15T22:33:58.508Z,98434.45
2019-05-15T22:36:29.241Z,98428.48
2019-05-15T22:38:59.576Z,98416.90
2019-05-15T22:41:49.089Z,98415.46
2019-05-15T22:44:20.622Z,98405.72
2019-05-15T22:46:58.012Z,98393.37
2019-05-15T22:49:26.002Z,98392.34
2019-05-15T22:51:58.150Z,98387.77
2019-05-15T22:54:49.550Z,98380.30
2019-05-15T22:57:20.044Z,98379.06
2019-05-15T22:59:50.328Z,98373.66
2019-05-15T23:02:23.701Z,98371.86
2019-05-15T23:05:23.868Z,98369.75
2019-05-15T23:08:04.303Z,98365.09
2019-05-15T23:10:55.242Z,98355.67
2019-05-15T23:13:48.188Z,98354.41
2019-05-15T23:16:51.245Z,98349.50
2019-05-15T23:19:11.873Z,98203.07
2019-05-15T23:21:42.389Z,98352.00
2019-05-15T23:24:31.666Z,98353.79
2019-05-15T23:27:21.298Z,98351.64
2019-05-15T23:29:51.526Z,98349.09
2019-05-15T23:32:21.844Z,98346.28
2019-05-15T23:34:52.072Z,98339.06
2019-05-15T23:40:30.939Z,98327.62
2019-05-15T23:43:21.265Z,98313.34
2019-05-15T23:46:10.551Z,98309.97
2019-05-15T23:49:00.332Z,98299.99
2019-05-15T23:51:42.045Z,98295.53
2019-05-15T23:54:23.997Z,98300.55
2019-05-15T23:57:15.052Z,98288.34
2019-05-15T23:59:56.171Z,98290.65
